sensor_id;sensor_type;location;lat;lon;timestamp;temperature;humidity
69208;SHT31;70114;47.690;8.898;2024-03-17T00:01:37;8.16;84.04
69208;SHT31;70114;47.690;8.898;2024-03-17T00:04:03;8.23;83.86
69208;SHT31;70114;47.690;8.898;2024-03-17T00:06:29;8.06;84.21
69208;SHT31;70114;47.690;8.898;2024-03-17T00:08:55;8.12;84.44
69208;SHT31;70114;47.690;8.898;2024-03-17T00:11:20;8.16;84.03
69208;SHT31;70114;47.690;8.898;2024-03-17T00:13:46;8.26;84.45
69208;SHT31;70114;47.690;8.898;2024-03-17T00:16:12;8.10;85.75
69208;SHT31;70114;47.690;8.898;2024-03-17T00:18:38;8.14;85.40
69208;SHT31;70114;47.690;8.898;2024-03-17T00:21:04;8.20;85.50
69208;SHT31;70114;47.690;8.898;2024-03-17T00:23:29;8.24;84.89
69208;SHT31;70114;47.690;8.898;2024-03-17T00:25:55;8.32;84.93
69208;SHT31;70114;47.690;8.898;2024-03-17T00:28:20;8.27;85.32
69208;SHT31;70114;47.690;8.898;2024-03-17T00:30:46;8.30;85.03
69208;SHT31;70114;47.690;8.898;2024-03-17T00:33:11;8.24;85.11
69208;SHT31;70114;47.690;8.898;2024-03-17T00:35:37;8.32;85.11
69208;SHT31;70114;47.690;8.898;2024-03-17T00:38:02;8.34;84.86
69208;SHT31;70114;47.690;8.898;2024-03-17T00:40:35;8.34;85.07
69208;SHT31;70114;47.690;8.898;2024-03-17T00:43:00;8.44;85.68
69208;SHT31;70114;47.690;8.898;2024-03-17T00:45:26;8.50;85.42
69208;SHT31;70114;47.690;8.898;2024-03-17T00:47:51;8.47;85.21
69208;SHT31;70114;47.690;8.898;2024-03-17T00:50:16;8.45;85.40
69208;SHT31;70114;47.690;8.898;2024-03-17T00:52:42;8.48;85.35
69208;SHT31;70114;47.690;8.898;2024-03-17T00:55:07;8.57;85.15
69208;SHT31;70114;47.690;8.898;2024-03-17T00:57:35;8.58;84.88
69208;SHT31;70114;47.690;8.898;2024-03-17T01:00:00;8.67;84.84
69208;SHT31;70114;47.690;8.898;2024-03-17T01:02:25;8.58;85.01
69208;SHT31;70114;47.690;8.898;2024-03-17T01:04:51;8.55;85.54
69208;SHT31;70114;47.690;8.898;2024-03-17T01:07:16;8.64;85.68
69208;SHT31;70114;47.690;8.898;2024-03-17T01:09:42;8.68;85.39
69208;SHT31;70114;47.690;8.898;2024-03-17T01:12:07;8.69;85.42
69208;SHT31;70114;47.690;8.898;2024-03-17T01:14:32;8.72;85.69
69208;SHT31;70114;47.690;8.898;2024-03-17T01:16:59;8.78;85.42
69208;SHT31;70114;47.690;8.898;2024-03-17T01:19:25;8.54;86.81
69208;SHT31;70114;47.690;8.898;2024-03-17T01:21:51;8.71;86.08
69208;SHT31;70114;47.690;8.898;2024-03-17T01:24:17;8.81;86.27
69208;SHT31;70114;47.690;8.898;2024-03-17T01:26:43;8.81;85.99
69208;SHT31;70114;47.690;8.898;2024-03-17T01:29:08;8.75;86.46
69208;SHT31;70114;47.690;8.898;2024-03-17T01:31:34;8.81;86.37
69208;SHT31;70114;47.690;8.898;2024-03-17T01:33:59;8.88;86.43
69208;SHT31;70114;47.690;8.898;2024-03-17T01:36:25;8.91;86.34
69208;SHT31;70114;47.690;8.898;2024-03-17T01:38:50;8.98;85.96
69208;SHT31;70114;47.690;8.898;2024-03-17T01:41:16;8.98;85.83
69208;SHT31;70114;47.690;8.898;2024-03-17T01:43:41;8.96;85.64
69208;SHT31;70114;47.690;8.898;2024-03-17T01:46:12;8.96;85.39
69208;SHT31;70114;47.690;8.898;2024-03-17T01:48:38;8.85;86.12
69208;SHT31;70114;47.690;8.898;2024-03-17T01:51:04;8.89;85.91
69208;SHT31;70114;47.690;8.898;2024-03-17T01:53:29;8.92;85.51
69208;SHT31;70114;47.690;8.898;2024-03-17T01:55:57;8.85;85.95
69208;SHT31;70114;47.690;8.898;2024-03-17T01:58:25;8.96;85.46
69208;SHT31;70114;47.690;8.898;2024-03-17T02:00:50;8.95;85.45
69208;SHT31;70114;47.690;8.898;2024-03-17T02:03:17;8.92;85.19
69208;SHT31;70114;47.690;8.898;2024-03-17T02:05:42;8.92;84.85
69208;SHT31;70114;47.690;8.898;2024-03-17T02:08:10;8.96;85.12
69208;SHT31;70114;47.690;8.898;2024-03-17T02:10:37;8.98;84.93
69208;SHT31;70114;47.690;8.898;2024-03-17T02:13:03;8.88;85.35
69208;SHT31;70114;47.690;8.898;2024-03-17T02:15:29;8.79;85.83
69208;SHT31;70114;47.690;8.898;2024-03-17T02:17:54;8.84;86.11
69208;SHT31;70114;47.690;8.898;2024-03-17T02:20:20;8.85;85.85
69208;SHT31;70114;47.690;8.898;2024-03-17T02:22:50;8.88;85.26
69208;SHT31;70114;47.690;8.898;2024-03-17T02:25:15;8.86;85.22
69208;SHT31;70114;47.690;8.898;2024-03-17T02:27:41;8.85;85.26
69208;SHT31;70114;47.690;8.898;2024-03-17T02:30:06;8.82;85.11
69208;SHT31;70114;47.690;8.898;2024-03-17T02:32:34;8.86;84.97
69208;SHT31;70114;47.690;8.898;2024-03-17T02:35:00;8.74;85.56
69208;SHT31;70114;47.690;8.898;2024-03-17T02:37:25;8.63;86.19
69208;SHT31;70114;47.690;8.898;2024-03-17T02:39:51;8.58;87.44
69208;SHT31;70114;47.690;8.898;2024-03-17T02:42:17;8.44;87.88
69208;SHT31;70114;47.690;8.898;2024-03-17T02:44:42;8.51;87.52
69208;SHT31;70114;47.690;8.898;2024-03-17T02:47:08;8.61;86.78
69208;SHT31;70114;47.690;8.898;2024-03-17T02:49:39;8.68;86.70
69208;SHT31;70114;47.690;8.898;2024-03-17T02:52:09;8.71;86.44
69208;SHT31;70114;47.690;8.898;2024-03-17T02:54:36;8.74;86.07
69208;SHT31;70114;47.690;8.898;2024-03-17T02:57:06;8.78;86.20
69208;SHT31;70114;47.690;8.898;2024-03-17T02:59:34;8.86;86.09
69208;SHT31;70114;47.690;8.898;2024-03-17T03:02:00;8.89;86.52
69208;SHT31;70114;47.690;8.898;2024-03-17T03:04:26;8.93;86.25
69208;SHT31;70114;47.690;8.898;2024-03-17T03:06:52;8.98;85.89
69208;SHT31;70114;47.690;8.898;2024-03-17T03:09:17;8.92;86.42
69208;SHT31;70114;47.690;8.898;2024-03-17T03:11:47;8.89;86.27
69208;SHT31;70114;47.690;8.898;2024-03-17T03:14:13;8.95;85.55
69208;SHT31;70114;47.690;8.898;2024-03-17T03:16:38;8.95;85.79
69208;SHT31;70114;47.690;8.898;2024-03-17T03:19:04;8.95;85.42
69208;SHT31;70114;47.690;8.898;2024-03-17T03:21:30;8.98;85.17
69208;SHT31;70114;47.690;8.898;2024-03-17T03:23:56;8.93;85.45
69208;SHT31;70114;47.690;8.898;2024-03-17T03:26:21;8.93;85.65
69208;SHT31;70114;47.690;8.898;2024-03-17T03:28:47;8.93;85.53
69208;SHT31;70114;47.690;8.898;2024-03-17T03:31:13;8.96;85.34
69208;SHT31;70114;47.690;8.898;2024-03-17T03:33:41;8.95;85.23
69208;SHT31;70114;47.690;8.898;2024-03-17T03:36:11;8.99;85.36
69208;SHT31;70114;47.690;8.898;2024-03-17T03:38:37;8.85;85.91
69208;SHT31;70114;47.690;8.898;2024-03-17T03:41:10;8.85;85.75
69208;SHT31;70114;47.690;8.898;2024-03-17T03:43:36;8.81;85.77
69208;SHT31;70114;47.690;8.898;2024-03-17T03:46:02;8.81;85.55
69208;SHT31;70114;47.690;8.898;2024-03-17T03:48:27;8.85;85.17
69208;SHT31;70114;47.690;8.898;2024-03-17T03:50:53;8.82;84.78
69208;SHT31;70114;47.690;8.898;2024-03-17T03:53:19;8.67;85.18
69208;SHT31;70114;47.690;8.898;2024-03-17T03:55:45;8.71;84.87
69208;SHT31;70114;47.690;8.898;2024-03-17T03:58:10;8.67;84.99
69208;SHT31;70114;47.690;8.898;2024-03-17T04:00:38;8.65;85.27
69208;SHT31;70114;47.690;8.898;2024-03-17T04:03:05;8.63;85.14
69208;SHT31;70114;47.690;8.898;2024-03-17T04:05:30;8.65;84.88
69208;SHT31;70114;47.690;8.898;2024-03-17T04:07:56;8.53;85.50
69208;SHT31;70114;47.690;8.898;2024-03-17T04:10:21;8.43;86.01
69208;SHT31;70114;47.690;8.898;2024-03-17T04:12:47;8.51;85.22
69208;SHT31;70114;47.690;8.898;2024-03-17T04:15:13;8.53;85.29
69208;SHT31;70114;47.690;8.898;2024-03-17T04:17:39;8.47;85.64
69208;SHT31;70114;47.690;8.898;2024-03-17T04:20:05;8.43;85.43
69208;SHT31;70114;47.690;8.898;2024-03-17T04:22:33;8.45;85.86
69208;SHT31;70114;47.690;8.898;2024-03-17T04:24:58;8.41;85.77
69208;SHT31;70114;47.690;8.898;2024-03-17T04:27:25;8.44;85.77
69208;SHT31;70114;47.690;8.898;2024-03-17T04:29:52;8.45;85.50
69208;SHT31;70114;47.690;8.898;2024-03-17T04:32:17;8.41;85.18
69208;SHT31;70114;47.690;8.898;2024-03-17T04:34:43;8.37;85.38
69208;SHT31;70114;47.690;8.898;2024-03-17T04:37:09;8.38;85.36
69208;SHT31;70114;47.690;8.898;2024-03-17T04:39:37;8.33;85.23
69208;SHT31;70114;47.690;8.898;2024-03-17T04:42:03;8.23;85.09
69208;SHT31;70114;47.690;8.898;2024-03-17T04:44:29;8.33;84.82
69208;SHT31;70114;47.690;8.898;2024-03-17T04:46:54;8.33;84.38
69208;SHT31;70114;47.690;8.898;2024-03-17T04:49:20;8.36;84.08
69208;SHT31;70114;47.690;8.898;2024-03-17T04:51:45;8.29;84.36
69208;SHT31;70114;47.690;8.898;2024-03-17T04:54:11;8.23;84.45
69208;SHT31;70114;47.690;8.898;2024-03-17T04:56:36;8.20;84.30
69208;SHT31;70114;47.690;8.898;2024-03-17T04:59:02;8.24;84.31
69208;SHT31;70114;47.690;8.898;2024-03-17T05:01:27;8.23;84.59
69208;SHT31;70114;47.690;8.898;2024-03-17T05:03:53;8.22;84.21
69208;SHT31;70114;47.690;8.898;2024-03-17T05:06:18;8.10;84.34
69208;SHT31;70114;47.690;8.898;2024-03-17T05:08:43;8.14;83.82
69208;SHT31;70114;47.690;8.898;2024-03-17T05:11:09;8.13;84.39
69208;SHT31;70114;47.690;8.898;2024-03-17T05:13:36;8.09;83.43
69208;SHT31;70114;47.690;8.898;2024-03-17T05:16:04;8.00;83.31
69208;SHT31;70114;47.690;8.898;2024-03-17T05:18:29;7.96;82.79
69208;SHT31;70114;47.690;8.898;2024-03-17T05:21:05;7.82;82.79
69208;SHT31;70114;47.690;8.898;2024-03-17T05:23:32;7.75;83.01
69208;SHT31;70114;47.690;8.898;2024-03-17T05:25:58;7.72;83.52
69208;SHT31;70114;47.690;8.898;2024-03-17T05:28:25;7.71;83.70
69208;SHT31;70114;47.690;8.898;2024-03-17T05:30:50;7.71;83.08
69208;SHT31;70114;47.690;8.898;2024-03-17T05:33:17;7.69;83.25
69208;SHT31;70114;47.690;8.898;2024-03-17T05:35:54;7.52;83.65
69208;SHT31;70114;47.690;8.898;2024-03-17T05:38:21;7.54;83.23
69208;SHT31;70114;47.690;8.898;2024-03-17T05:41:00;7.59;84.22
69208;SHT31;70114;47.690;8.898;2024-03-17T05:43:27;7.55;83.45
69208;SHT31;70114;47.690;8.898;2024-03-17T05:45:53;7.50;83.84
69208;SHT31;70114;47.690;8.898;2024-03-17T05:48:19;7.44;83.66
69208;SHT31;70114;47.690;8.898;2024-03-17T05:50:45;7.41;83.46
69208;SHT31;70114;47.690;8.898;2024-03-17T05:53:10;7.41;83.66
69208;SHT31;70114;47.690;8.898;2024-03-17T05:55:36;7.43;83.69
69208;SHT31;70114;47.690;8.898;2024-03-17T05:58:02;7.47;83.54
69208;SHT31;70114;47.690;8.898;2024-03-17T06:00:28;7.46;83.27
69208;SHT31;70114;47.690;8.898;2024-03-17T06:02:53;7.52;83.79
69208;SHT31;70114;47.690;8.898;2024-03-17T06:05:18;7.30;83.83
69208;SHT31;70114;47.690;8.898;2024-03-17T06:07:44;7.41;84.48
69208;SHT31;70114;47.690;8.898;2024-03-17T06:10:09;7.46;84.58
69208;SHT31;70114;47.690;8.898;2024-03-17T06:12:35;7.52;84.35
69208;SHT31;70114;47.690;8.898;2024-03-17T06:15:00;7.57;84.83
69208;SHT31;70114;47.690;8.898;2024-03-17T06:17:27;7.64;84.84
69208;SHT31;70114;47.690;8.898;2024-03-17T06:19:52;7.68;84.70
69208;SHT31;70114;47.690;8.898;2024-03-17T06:22:18;7.74;84.55
69208;SHT31;70114;47.690;8.898;2024-03-17T06:24:43;7.79;84.64
69208;SHT31;70114;47.690;8.898;2024-03-17T06:27:08;7.89;84.67
69208;SHT31;70114;47.690;8.898;2024-03-17T06:29:34;8.00;84.44
69208;SHT31;70114;47.690;8.898;2024-03-17T06:31:59;8.03;84.69
69208;SHT31;70114;47.690;8.898;2024-03-17T06:34:25;8.17;84.68
69208;SHT31;70114;47.690;8.898;2024-03-17T06:36:51;8.23;85.00
69208;SHT31;70114;47.690;8.898;2024-03-17T06:39:16;8.30;85.51
69208;SHT31;70114;47.690;8.898;2024-03-17T06:41:42;8.45;85.17
69208;SHT31;70114;47.690;8.898;2024-03-17T06:44:08;8.58;85.17
69208;SHT31;70114;47.690;8.898;2024-03-17T06:46:34;8.71;85.26
69208;SHT31;70114;47.690;8.898;2024-03-17T06:49:00;8.86;85.17
69208;SHT31;70114;47.690;8.898;2024-03-17T06:51:25;8.96;85.09
69208;SHT31;70114;47.690;8.898;2024-03-17T06:53:50;9.15;85.33
69208;SHT31;70114;47.690;8.898;2024-03-17T06:56:16;9.27;85.01
69208;SHT31;70114;47.690;8.898;2024-03-17T06:58:41;9.44;85.44
69208;SHT31;70114;47.690;8.898;2024-03-17T07:01:08;9.52;85.44
69208;SHT31;70114;47.690;8.898;2024-03-17T07:03:33;9.61;85.99
69208;SHT31;70114;47.690;8.898;2024-03-17T07:06:00;9.70;86.23
69208;SHT31;70114;47.690;8.898;2024-03-17T07:08:28;9.85;85.89
69208;SHT31;70114;47.690;8.898;2024-03-17T07:11:01;9.89;85.29
69208;SHT31;70114;47.690;8.898;2024-03-17T07:13:35;9.98;85.80
69208;SHT31;70114;47.690;8.898;2024-03-17T07:16:04;9.99;86.04
69208;SHT31;70114;47.690;8.898;2024-03-17T07:18:33;10.08;85.73
69208;SHT31;70114;47.690;8.898;2024-03-17T07:21:00;10.09;85.92
69208;SHT31;70114;47.690;8.898;2024-03-17T07:23:26;10.10;86.43
69208;SHT31;70114;47.690;8.898;2024-03-17T07:25:55;10.18;86.26
69208;SHT31;70114;47.690;8.898;2024-03-17T07:28:22;10.19;86.09
69208;SHT31;70114;47.690;8.898;2024-03-17T07:30:55;10.23;85.91
69208;SHT31;70114;47.690;8.898;2024-03-17T07:33:22;10.30;85.45
69208;SHT31;70114;47.690;8.898;2024-03-17T07:35:48;10.19;86.95
69208;SHT31;70114;47.690;8.898;2024-03-17T07:38:14;10.33;85.61
69208;SHT31;70114;47.690;8.898;2024-03-17T07:40:41;10.26;86.27
69208;SHT31;70114;47.690;8.898;2024-03-17T07:43:06;10.29;86.63
69208;SHT31;70114;47.690;8.898;2024-03-17T07:45:31;10.30;86.63
69208;SHT31;70114;47.690;8.898;2024-03-17T07:47:57;10.20;87.24
69208;SHT31;70114;47.690;8.898;2024-03-17T07:50:24;10.30;87.60
69208;SHT31;70114;47.690;8.898;2024-03-17T07:52:49;10.29;87.05
69208;SHT31;70114;47.690;8.898;2024-03-17T07:55:15;10.36;86.48
69208;SHT31;70114;47.690;8.898;2024-03-17T07:57:41;10.42;86.11
69208;SHT31;70114;47.690;8.898;2024-03-17T08:00:07;10.54;85.33
69208;SHT31;70114;47.690;8.898;2024-03-17T08:02:47;10.57;84.91
69208;SHT31;70114;47.690;8.898;2024-03-17T08:05:12;10.63;84.69
69208;SHT31;70114;47.690;8.898;2024-03-17T08:07:38;10.64;84.97
69208;SHT31;70114;47.690;8.898;2024-03-17T08:10:04;10.78;84.62
69208;SHT31;70114;47.690;8.898;2024-03-17T08:12:30;10.93;84.45
69208;SHT31;70114;47.690;8.898;2024-03-17T08:14:55;11.04;83.62
69208;SHT31;70114;47.690;8.898;2024-03-17T08:17:20;11.05;83.27
69208;SHT31;70114;47.690;8.898;2024-03-17T08:19:46;11.01;84.10
69208;SHT31;70114;47.690;8.898;2024-03-17T08:22:13;11.12;84.15
69208;SHT31;70114;47.690;8.898;2024-03-17T08:24:38;11.15;83.70
69208;SHT31;70114;47.690;8.898;2024-03-17T08:27:04;11.14;83.84
69208;SHT31;70114;47.690;8.898;2024-03-17T08:29:29;11.26;82.98
69208;SHT31;70114;47.690;8.898;2024-03-17T08:31:55;11.18;82.05
69208;SHT31;70114;47.690;8.898;2024-03-17T08:34:20;11.23;83.14
69208;SHT31;70114;47.690;8.898;2024-03-17T08:36:45;11.26;81.69
69208;SHT31;70114;47.690;8.898;2024-03-17T08:39:11;11.29;81.71
69208;SHT31;70114;47.690;8.898;2024-03-17T08:41:37;11.35;81.46
69208;SHT31;70114;47.690;8.898;2024-03-17T08:44:02;11.42;81.81
69208;SHT31;70114;47.690;8.898;2024-03-17T08:46:27;11.50;81.22
69208;SHT31;70114;47.690;8.898;2024-03-17T08:48:53;11.52;81.02
69208;SHT31;70114;47.690;8.898;2024-03-17T08:51:18;11.60;80.94
69208;SHT31;70114;47.690;8.898;2024-03-17T08:53:44;11.49;81.41
69208;SHT31;70114;47.690;8.898;2024-03-17T08:56:10;11.56;82.32
69208;SHT31;70114;47.690;8.898;2024-03-17T08:58:35;11.71;81.38
69208;SHT31;70114;47.690;8.898;2024-03-17T09:01:06;11.76;81.99
69208;SHT31;70114;47.690;8.898;2024-03-17T09:03:33;11.87;80.88
69208;SHT31;70114;47.690;8.898;2024-03-17T09:05:59;11.88;80.47
69208;SHT31;70114;47.690;8.898;2024-03-17T09:08:25;12.02;80.71
69208;SHT31;70114;47.690;8.898;2024-03-17T09:10:52;12.05;79.60
69208;SHT31;70114;47.690;8.898;2024-03-17T09:13:19;12.10;79.67
69208;SHT31;70114;47.690;8.898;2024-03-17T09:15:58;12.14;79.20
69208;SHT31;70114;47.690;8.898;2024-03-17T09:18:33;12.13;78.86
69208;SHT31;70114;47.690;8.898;2024-03-17T09:21:03;12.17;79.67
69208;SHT31;70114;47.690;8.898;2024-03-17T09:23:31;12.24;78.33
69208;SHT31;70114;47.690;8.898;2024-03-17T09:26:08;12.35;79.07
69208;SHT31;70114;47.690;8.898;2024-03-17T09:28:35;12.34;77.56
69208;SHT31;70114;47.690;8.898;2024-03-17T09:31:00;12.41;77.62
69208;SHT31;70114;47.690;8.898;2024-03-17T09:33:27;12.35;77.04
69208;SHT31;70114;47.690;8.898;2024-03-17T09:36:00;12.34;76.09
69208;SHT31;70114;47.690;8.898;2024-03-17T09:38:27;12.55;76.58
69208;SHT31;70114;47.690;8.898;2024-03-17T09:40:52;12.59;76.03
69208;SHT31;70114;47.690;8.898;2024-03-17T09:43:21;12.60;76.14
69208;SHT31;70114;47.690;8.898;2024-03-17T09:45:49;12.55;75.61
69208;SHT31;70114;47.690;8.898;2024-03-17T09:48:19;12.62;76.94
69208;SHT31;70114;47.690;8.898;2024-03-17T09:50:50;12.70;75.52
69208;SHT31;70114;47.690;8.898;2024-03-17T09:53:17;12.79;75.70
69208;SHT31;70114;47.690;8.898;2024-03-17T09:55:44;12.79;76.61
69208;SHT31;70114;47.690;8.898;2024-03-17T09:58:15;12.84;76.08
69208;SHT31;70114;47.690;8.898;2024-03-17T10:00:43;12.87;75.98
69208;SHT31;70114;47.690;8.898;2024-03-17T10:03:08;12.82;76.33
69208;SHT31;70114;47.690;8.898;2024-03-17T10:05:34;13.02;75.93
69208;SHT31;70114;47.690;8.898;2024-03-17T10:07:59;12.94;75.56
69208;SHT31;70114;47.690;8.898;2024-03-17T10:10:24;13.18;76.05
69208;SHT31;70114;47.690;8.898;2024-03-17T10:12:51;13.23;75.55
69208;SHT31;70114;47.690;8.898;2024-03-17T10:15:17;13.28;74.40
69208;SHT31;70114;47.690;8.898;2024-03-17T10:17:44;13.38;74.81
69208;SHT31;70114;47.690;8.898;2024-03-17T10:20:20;13.30;76.42
69208;SHT31;70114;47.690;8.898;2024-03-17T10:23:01;13.30;74.22
69208;SHT31;70114;47.690;8.898;2024-03-17T10:25:28;13.47;74.85
69208;SHT31;70114;47.690;8.898;2024-03-17T10:27:54;13.68;73.90
69208;SHT31;70114;47.690;8.898;2024-03-17T10:30:20;13.58;74.23
69208;SHT31;70114;47.690;8.898;2024-03-17T10:32:52;13.57;72.67
69208;SHT31;70114;47.690;8.898;2024-03-17T10:35:28;13.61;72.53
69208;SHT31;70114;47.690;8.898;2024-03-17T10:38:01;13.63;72.77
69208;SHT31;70114;47.690;8.898;2024-03-17T10:40:29;13.76;72.42
69208;SHT31;70114;47.690;8.898;2024-03-17T10:42:56;13.57;71.63
69208;SHT31;70114;47.690;8.898;2024-03-17T10:45:22;13.57;72.55
69208;SHT31;70114;47.690;8.898;2024-03-17T10:47:49;13.48;72.47
69208;SHT31;70114;47.690;8.898;2024-03-17T10:50:22;13.40;72.30
69208;SHT31;70114;47.690;8.898;2024-03-17T10:52:52;13.27;73.45
69208;SHT31;70114;47.690;8.898;2024-03-17T10:55:21;13.32;73.66
69208;SHT31;70114;47.690;8.898;2024-03-17T10:57:49;13.32;73.77
69208;SHT31;70114;47.690;8.898;2024-03-17T11:00:16;13.37;73.70
69208;SHT31;70114;47.690;8.898;2024-03-17T11:02:48;13.42;73.40
69208;SHT31;70114;47.690;8.898;2024-03-17T11:05:16;13.50;72.73
69208;SHT31;70114;47.690;8.898;2024-03-17T11:07:44;13.34;73.09
69208;SHT31;70114;47.690;8.898;2024-03-17T11:10:19;13.52;72.33
69208;SHT31;70114;47.690;8.898;2024-03-17T11:12:55;13.48;71.51
69208;SHT31;70114;47.690;8.898;2024-03-17T11:20:34;13.32;72.75
69208;SHT31;70114;47.690;8.898;2024-03-17T11:23:01;13.34;72.57
69208;SHT31;70114;47.690;8.898;2024-03-17T11:27:56;13.37;73.61
69208;SHT31;70114;47.690;8.898;2024-03-17T11:38:53;12.94;74.44
69208;SHT31;70114;47.690;8.898;2024-03-17T11:46:57;13.03;73.95
69208;SHT31;70114;47.690;8.898;2024-03-17T11:51:54;13.04;71.85
69208;SHT31;70114;47.690;8.898;2024-03-17T11:54:24;12.94;72.35
69208;SHT31;70114;47.690;8.898;2024-03-17T11:56:53;12.84;72.56
69208;SHT31;70114;47.690;8.898;2024-03-17T11:59:19;12.90;72.48
69208;SHT31;70114;47.690;8.898;2024-03-17T12:01:45;12.92;72.40
69208;SHT31;70114;47.690;8.898;2024-03-17T12:04:13;12.69;71.87
69208;SHT31;70114;47.690;8.898;2024-03-17T12:06:39;12.67;72.65
69208;SHT31;70114;47.690;8.898;2024-03-17T12:09:25;12.75;73.01
69208;SHT31;70114;47.690;8.898;2024-03-17T12:11:58;12.73;72.81
69208;SHT31;70114;47.690;8.898;2024-03-17T12:14:24;12.77;73.12
69208;SHT31;70114;47.690;8.898;2024-03-17T12:17:11;12.63;73.04
69208;SHT31;70114;47.690;8.898;2024-03-17T12:19:37;12.55;73.06
69208;SHT31;70114;47.690;8.898;2024-03-17T12:22:04;12.62;73.35
69208;SHT31;70114;47.690;8.898;2024-03-17T12:24:34;12.66;73.59
69208;SHT31;70114;47.690;8.898;2024-03-17T12:27:01;12.75;73.57
69208;SHT31;70114;47.690;8.898;2024-03-17T12:32:05;12.94;73.26
69208;SHT31;70114;47.690;8.898;2024-03-17T12:34:33;12.90;72.78
69208;SHT31;70114;47.690;8.898;2024-03-17T12:37:00;12.90;72.91
69208;SHT31;70114;47.690;8.898;2024-03-17T12:39:30;12.96;72.85
69208;SHT31;70114;47.690;8.898;2024-03-17T12:44:39;12.92;73.28
69208;SHT31;70114;47.690;8.898;2024-03-17T12:47:08;12.90;72.53
69208;SHT31;70114;47.690;8.898;2024-03-17T12:49:44;12.89;73.42
69208;SHT31;70114;47.690;8.898;2024-03-17T12:52:17;12.82;73.96
69208;SHT31;70114;47.690;8.898;2024-03-17T12:54:43;12.72;74.20
69208;SHT31;70114;47.690;8.898;2024-03-17T12:57:15;12.86;75.27
69208;SHT31;70114;47.690;8.898;2024-03-17T12:59:59;12.73;74.70
69208;SHT31;70114;47.690;8.898;2024-03-17T13:02:43;12.69;74.47
69208;SHT31;70114;47.690;8.898;2024-03-17T13:05:16;12.59;75.38
69208;SHT31;70114;47.690;8.898;2024-03-17T13:07:45;12.67;75.83
69208;SHT31;70114;47.690;8.898;2024-03-17T13:10:14;12.65;75.31
69208;SHT31;70114;47.690;8.898;2024-03-17T13:12:41;12.59;73.78
69208;SHT31;70114;47.690;8.898;2024-03-17T13:15:09;12.57;74.38
69208;SHT31;70114;47.690;8.898;2024-03-17T13:17:35;12.59;75.00
69208;SHT31;70114;47.690;8.898;2024-03-17T13:20:01;12.65;73.87
69208;SHT31;70114;47.690;8.898;2024-03-17T13:22:26;12.55;73.97
69208;SHT31;70114;47.690;8.898;2024-03-17T13:24:52;12.59;75.45
69208;SHT31;70114;47.690;8.898;2024-03-17T13:27:17;12.50;77.58
69208;SHT31;70114;47.690;8.898;2024-03-17T13:29:47;12.52;76.93
69208;SHT31;70114;47.690;8.898;2024-03-17T13:32:13;12.60;76.98
69208;SHT31;70114;47.690;8.898;2024-03-17T13:34:38;12.66;76.86
69208;SHT31;70114;47.690;8.898;2024-03-17T13:37:03;12.45;78.98
69208;SHT31;70114;47.690;8.898;2024-03-17T13:39:30;12.55;77.67
69208;SHT31;70114;47.690;8.898;2024-03-17T13:41:57;12.56;77.93
69208;SHT31;70114;47.690;8.898;2024-03-17T13:44:32;12.55;79.02
69208;SHT31;70114;47.690;8.898;2024-03-17T13:46:58;12.59;77.76
69208;SHT31;70114;47.690;8.898;2024-03-17T13:49:29;12.62;78.26
69208;SHT31;70114;47.690;8.898;2024-03-17T13:51:55;12.62;78.86
69208;SHT31;70114;47.690;8.898;2024-03-17T13:54:20;12.60;77.96
69208;SHT31;70114;47.690;8.898;2024-03-17T13:56:49;12.59;77.53
69208;SHT31;70114;47.690;8.898;2024-03-17T13:59:15;12.53;78.01
69208;SHT31;70114;47.690;8.898;2024-03-17T14:01:42;12.53;78.36
69208;SHT31;70114;47.690;8.898;2024-03-17T14:04:16;12.59;78.80
69208;SHT31;70114;47.690;8.898;2024-03-17T14:06:44;12.67;77.99
69208;SHT31;70114;47.690;8.898;2024-03-17T14:09:09;12.79;77.88
69208;SHT31;70114;47.690;8.898;2024-03-17T14:11:36;12.83;78.55
69208;SHT31;70114;47.690;8.898;2024-03-17T14:14:01;12.80;79.91
69208;SHT31;70114;47.690;8.898;2024-03-17T14:16:29;12.76;79.33
69208;SHT31;70114;47.690;8.898;2024-03-17T14:18:57;12.97;76.74
69208;SHT31;70114;47.690;8.898;2024-03-17T14:21:22;13.06;76.80
69208;SHT31;70114;47.690;8.898;2024-03-17T14:23:48;13.11;75.92
69208;SHT31;70114;47.690;8.898;2024-03-17T14:26:13;13.10;75.85
69208;SHT31;70114;47.690;8.898;2024-03-17T14:28:38;13.14;75.74
69208;SHT31;70114;47.690;8.898;2024-03-17T14:31:04;13.28;76.74
69208;SHT31;70114;47.690;8.898;2024-03-17T14:33:29;13.27;76.46
69208;SHT31;70114;47.690;8.898;2024-03-17T14:35:59;13.15;75.74
69208;SHT31;70114;47.690;8.898;2024-03-17T14:38:24;13.18;75.39
69208;SHT31;70114;47.690;8.898;2024-03-17T14:40:53;13.13;76.22
69208;SHT31;70114;47.690;8.898;2024-03-17T14:43:21;13.08;76.80
69208;SHT31;70114;47.690;8.898;2024-03-17T14:45:46;13.13;75.81
69208;SHT31;70114;47.690;8.898;2024-03-17T14:48:12;13.24;75.75
69208;SHT31;70114;47.690;8.898;2024-03-17T14:50:40;13.18;74.99
69208;SHT31;70114;47.690;8.898;2024-03-17T14:53:06;13.21;75.30
69208;SHT31;70114;47.690;8.898;2024-03-17T14:55:31;13.24;74.76
69208;SHT31;70114;47.690;8.898;2024-03-17T14:57:57;13.10;75.70
69208;SHT31;70114;47.690;8.898;2024-03-17T15:00:22;13.04;74.27
69208;SHT31;70114;47.690;8.898;2024-03-17T15:02:51;13.00;73.79
69208;SHT31;70114;47.690;8.898;2024-03-17T15:05:17;12.94;74.00
69208;SHT31;70114;47.690;8.898;2024-03-17T15:07:47;12.97;75.34
69208;SHT31;70114;47.690;8.898;2024-03-17T15:10:13;12.93;75.84
69208;SHT31;70114;47.690;8.898;2024-03-17T15:12:40;13.02;75.57
69208;SHT31;70114;47.690;8.898;2024-03-17T15:15:06;13.02;75.30
69208;SHT31;70114;47.690;8.898;2024-03-17T15:17:35;12.97;76.27
69208;SHT31;70114;47.690;8.898;2024-03-17T15:20:01;13.03;75.95
69208;SHT31;70114;47.690;8.898;2024-03-17T15:22:26;12.93;76.22
69208;SHT31;70114;47.690;8.898;2024-03-17T15:24:52;13.03;76.74
69208;SHT31;70114;47.690;8.898;2024-03-17T15:27:18;12.96;76.52
69208;SHT31;70114;47.690;8.898;2024-03-17T15:29:44;13.00;76.56
69208;SHT31;70114;47.690;8.898;2024-03-17T15:32:09;12.93;76.92
69208;SHT31;70114;47.690;8.898;2024-03-17T15:34:36;12.86;77.55
69208;SHT31;70114;47.690;8.898;2024-03-17T15:37:03;12.63;77.55
69208;SHT31;70114;47.690;8.898;2024-03-17T15:39:28;12.79;77.69
69208;SHT31;70114;47.690;8.898;2024-03-17T15:41:54;12.86;77.15
69208;SHT31;70114;47.690;8.898;2024-03-17T15:44:19;12.94;77.05
69208;SHT31;70114;47.690;8.898;2024-03-17T15:46:46;12.99;77.06
69208;SHT31;70114;47.690;8.898;2024-03-17T15:49:14;13.02;77.00
69208;SHT31;70114;47.690;8.898;2024-03-17T15:51:39;13.02;77.06
69208;SHT31;70114;47.690;8.898;2024-03-17T15:54:06;13.07;76.69
69208;SHT31;70114;47.690;8.898;2024-03-17T15:56:31;13.04;76.58
69208;SHT31;70114;47.690;8.898;2024-03-17T15:58:57;12.97;75.78
69208;SHT31;70114;47.690;8.898;2024-03-17T16:01:22;12.99;77.42
69208;SHT31;70114;47.690;8.898;2024-03-17T16:03:48;13.03;77.16
69208;SHT31;70114;47.690;8.898;2024-03-17T16:06:18;12.93;76.99